EDW220R LEZL-LSZH
Flight info
| Callsign | EDW220R |
|---|---|
| Flight time | N/A |
| Altitude | 40000 |
| Route | HIJ M30 PARKA N858 SIE T430 LPA T429 TOPTU DCT TOU DCT GAI DCT MEN DCT NINUN DCT LATAM DCT ETREK DCT LTP DCT SOPLO DCT OMASI DCT KINNI DCT LAMUR DCT GUDAX Z57 DOPIL |
| Aircraft | A343/H-SDE2E3FGHIJ4J5M1RWXY/LB1D1 |
Departure
| Time | 2026-04-25 12:08 |
|---|---|
| Airport | Seville Airport (LEZL) |
Arrival
| Time | N/A |
|---|---|
| Airport | Zürich Airport (LSZH) |
| Time | Latitude | Longitude | Altitude | Speed | Heading |
|---|---|---|---|---|---|
| 2026-04-25 11:11 | 37.42269 | -5.89615 | 98 ft | 0 kts | 82° |
| 2026-04-25 12:02 | 37.42272 | -5.89588 | 101 ft | 5 kts | 82° |
| 2026-04-25 12:02 | 37.42267 | -5.89531 | 99 ft | 8 kts | 116° |
| 2026-04-25 12:02 | 37.42227 | -5.89474 | 101 ft | 9 kts | 134° |
| 2026-04-25 12:03 | 37.42178 | -5.89428 | 105 ft | 8 kts | 169° |
| 2026-04-25 12:03 | 37.42130 | -5.89470 | 102 ft | 10 kts | 226° |
| 2026-04-25 12:03 | 37.42068 | -5.89464 | 105 ft | 11 kts | 135° |
| 2026-04-25 12:03 | 37.42009 | -5.89389 | 105 ft | 13 kts | 135° |
| 2026-04-25 12:04 | 37.41983 | -5.89280 | 104 ft | 15 kts | 89° |
| 2026-04-25 12:04 | 37.41983 | -5.89141 | 104 ft | 17 kts | 90° |
| 2026-04-25 12:04 | 37.41984 | -5.88976 | 105 ft | 19 kts | 90° |
| 2026-04-25 12:04 | 37.41985 | -5.88808 | 107 ft | 20 kts | 90° |
| 2026-04-25 12:05 | 37.41985 | -5.88633 | 108 ft | 22 kts | 90° |
| 2026-04-25 12:05 | 37.41986 | -5.88415 | 109 ft | 27 kts | 89° |
| 2026-04-25 12:05 | 37.41986 | -5.88184 | 110 ft | 26 kts | 89° |
| 2026-04-25 12:05 | 37.41988 | -5.87958 | 111 ft | 26 kts | 90° |
| 2026-04-25 12:06 | 37.41988 | -5.87737 | 112 ft | 25 kts | 90° |
| 2026-04-25 12:06 | 37.41989 | -5.87521 | 114 ft | 24 kts | 89° |
| 2026-04-25 12:06 | 37.41969 | -5.87332 | 114 ft | 17 kts | 126° |
| 2026-04-25 12:06 | 37.41874 | -5.87338 | 118 ft | 15 kts | 223° |
| 2026-04-25 12:07 | 37.41819 | -5.87451 | 117 ft | 15 kts | 240° |
| 2026-04-25 12:07 | 37.41799 | -5.87553 | 116 ft | 13 kts | 270° |
| 2026-04-25 12:07 | 37.41799 | -5.87692 | 117 ft | 25 kts | 270° |
| 2026-04-25 12:07 | 37.41797 | -5.88185 | 110 ft | 87 kts | 270° |
| 2026-04-25 12:08 | 37.41794 | -5.89168 | 105 ft | 137 kts | 269° |
| 2026-04-25 12:08 | 37.41797 | -5.90522 | 283 ft | 163 kts | 271° |
| 2026-04-25 12:08 | 37.41885 | -5.91966 | 732 ft | 169 kts | 287° |
| 2026-04-25 12:08 | 37.42497 | -5.93232 | 1274 ft | 174 kts | 319° |
| 2026-04-25 12:09 | 37.43564 | -5.94052 | 1639 ft | 190 kts | 329° |
| 2026-04-25 12:09 | 37.44690 | -5.95110 | 1932 ft | 213 kts | 321° |
| 2026-04-25 12:10 | 37.49502 | -6.00372 | 1851 ft | 338 kts | 319° |
| 2026-04-25 12:10 | 37.51314 | -6.02323 | 2364 ft | 337 kts | 321° |
| 2026-04-25 12:10 | 37.53044 | -6.04165 | 3576 ft | 325 kts | 320° |
| 2026-04-25 12:10 | 37.54953 | -6.06181 | 2211 ft | 380 kts | 321° |
| 2026-04-25 12:11 | 37.57013 | -6.08296 | 2314 ft | 395 kts | 321° |